createdAt,value
2018-07-24T00:01:29.076Z,31.83
2018-07-24T00:03:57.548Z,29.60
2018-07-24T00:06:25.554Z,26.23
2018-07-24T00:08:53.649Z,21.63
2018-07-24T00:11:21.905Z,20.40
2018-07-24T00:13:49.744Z,24.83
2018-07-24T00:16:17.691Z,22.37
2018-07-24T00:18:46.603Z,20.80
2018-07-24T00:21:15.193Z,23.33
2018-07-24T00:23:43.230Z,27.67
2018-07-24T00:26:11.585Z,20.50
2018-07-24T00:28:41.599Z,20.60
2018-07-24T00:31:10.269Z,27.73
2018-07-24T00:33:38.790Z,23.10
2018-07-24T00:36:07.201Z,19.03
2018-07-24T00:38:35.258Z,22.47
2018-07-24T00:41:03.508Z,24.07
2018-07-24T00:43:31.587Z,28.57
2018-07-24T00:45:59.632Z,25.67
2018-07-24T00:48:27.602Z,23.07
2018-07-24T00:50:56.368Z,17.03
2018-07-24T00:53:26.598Z,17.10
2018-07-24T00:55:55.232Z,17.87
2018-07-24T00:58:23.576Z,17.57
2018-07-24T01:00:52.493Z,14.93
2018-07-24T01:03:20.817Z,16.73
2018-07-24T01:05:49.033Z,21.67
2018-07-24T01:08:17.183Z,15.90
2018-07-24T01:10:46.264Z,20.73
2018-07-24T01:13:14.944Z,18.20
2018-07-24T01:28:42.968Z,13.77
2018-07-24T01:31:11.721Z,12.40
2018-07-24T01:33:41.715Z,11.30
2018-07-24T01:36:10.309Z,13.40
2018-07-24T01:38:39.045Z,12.13
2018-07-24T01:41:07.175Z,14.20
2018-07-24T01:43:35.456Z,13.90
2018-07-24T01:46:04.302Z,10.13
2018-07-24T01:48:33.079Z,17.17
2018-07-24T01:51:01.417Z,13.37
2018-07-24T01:53:30.514Z,9.03
2018-07-24T01:55:59.295Z,9.50
2018-07-24T01:58:27.490Z,8.97
2018-07-24T02:00:58.860Z,9.57
2018-07-24T02:03:27.350Z,8.67
2018-07-24T02:05:55.367Z,13.00
2018-07-24T02:08:23.674Z,16.67
2018-07-24T02:10:52.904Z,10.87
2018-07-24T02:13:21.363Z,11.37
2018-07-24T02:15:52.548Z,10.17
2018-07-24T02:18:20.602Z,10.70
2018-07-24T02:20:48.982Z,12.83
2018-07-24T02:23:17.534Z,8.03
2018-07-24T02:25:47.180Z,12.13
2018-07-24T02:28:15.435Z,11.23
2018-07-24T02:30:44.336Z,7.83
2018-07-24T02:33:13.177Z,12.30
2018-07-24T02:35:41.754Z,11.13
2018-07-24T02:38:10.467Z,9.27
2018-07-24T02:40:38.794Z,12.37
2018-07-24T02:43:07.187Z,11.60
2018-07-24T02:45:35.947Z,9.93
2018-07-24T02:48:04.168Z,12.20
2018-07-24T02:50:32.217Z,13.90
2018-07-24T02:53:00.259Z,9.67
2018-07-24T02:55:28.682Z,7.97
2018-07-24T02:57:56.775Z,11.83
2018-07-24T03:00:24.865Z,9.10
2018-07-24T03:02:53.293Z,10.50
2018-07-24T03:05:22.139Z,10.73
2018-07-24T03:07:50.273Z,8.57
2018-07-24T03:10:18.437Z,11.73
2018-07-24T03:12:46.404Z,10.53
2018-07-24T03:25:00.561Z,9.63
2018-07-24T03:27:29.435Z,7.83
2018-07-24T03:29:57.871Z,9.20
2018-07-24T03:32:26.033Z,11.10
2018-07-24T03:34:54.534Z,9.33
2018-07-24T03:37:22.616Z,8.50
2018-07-24T03:39:50.875Z,11.80
2018-07-24T03:42:19.467Z,10.13
2018-07-24T03:44:48.344Z,12.60
2018-07-24T03:47:16.608Z,12.27
2018-07-24T03:49:44.587Z,10.93
2018-07-24T03:52:12.956Z,12.63
2018-07-24T03:54:41.443Z,14.40
2018-07-24T03:57:09.847Z,12.40
2018-07-24T03:59:38.793Z,10.33
2018-07-24T04:02:07.499Z,10.20
2018-07-24T04:04:35.889Z,11.67
2018-07-24T04:07:05.599Z,11.73
2018-07-24T04:09:34.077Z,14.47
2018-07-24T04:12:02.177Z,11.73
2018-07-24T04:14:30.228Z,13.90
2018-07-24T04:16:58.469Z,13.30
2018-07-24T04:19:27.165Z,10.37
2018-07-24T04:21:55.370Z,12.97
2018-07-24T04:24:23.419Z,14.13
2018-07-24T04:26:51.543Z,13.73
2018-07-24T04:29:20.555Z,13.77
2018-07-24T04:48:04.873Z,12.53
2018-07-24T04:50:32.868Z,20.57
2018-07-24T04:53:01.091Z,11.67
2018-07-24T04:55:29.464Z,11.97
2018-07-24T04:57:57.824Z,11.33
2018-07-24T05:00:25.769Z,11.08
2018-07-24T05:02:54.015Z,16.40
2018-07-24T05:05:22.821Z,13.08
2018-07-24T05:07:52.000Z,12.10
2018-07-24T05:10:21.594Z,14.00
2018-07-24T05:12:49.864Z,13.98
2018-07-24T05:17:53.944Z,12.70
2018-07-24T05:20:22.285Z,11.95
2018-07-24T05:22:50.818Z,11.57
2018-07-24T05:25:19.537Z,13.93
2018-07-24T05:27:47.954Z,13.25
2018-07-24T05:30:16.284Z,15.20
2018-07-24T05:32:44.886Z,14.05
2018-07-24T05:35:12.903Z,14.78
2018-07-24T05:37:42.352Z,14.25
2018-07-24T05:40:10.784Z,14.03
2018-07-24T05:42:39.471Z,13.95
2018-07-24T05:45:09.312Z,13.50
2018-07-24T05:47:38.256Z,14.15
2018-07-24T05:50:06.349Z,19.65
2018-07-24T05:52:34.823Z,14.80
2018-07-24T05:55:03.411Z,12.60
2018-07-24T05:59:00.487Z,14.38
2018-07-24T06:01:28.600Z,12.03
2018-07-24T06:03:56.827Z,12.88
2018-07-24T06:06:24.969Z,17.67
2018-07-24T06:08:53.179Z,15.13
2018-07-24T06:11:21.111Z,15.23
2018-07-24T06:13:49.032Z,13.68
2018-07-24T06:16:17.505Z,14.93
2018-07-24T06:18:45.482Z,16.23
2018-07-24T06:21:13.559Z,12.80
2018-07-24T06:23:41.699Z,16.25
2018-07-24T06:26:09.759Z,17.20
2018-07-24T06:28:37.748Z,14.50
2018-07-24T06:31:05.903Z,17.10
2018-07-24T06:33:34.019Z,13.90
2018-07-24T06:36:01.927Z,14.75
2018-07-24T06:38:29.959Z,13.65
2018-07-24T06:40:57.890Z,15.83
2018-07-24T06:43:25.912Z,15.48
2018-07-24T06:45:53.902Z,15.05
2018-07-24T06:48:21.799Z,15.05
2018-07-24T06:50:49.692Z,15.83
2018-07-24T06:53:17.639Z,14.90
2018-07-24T06:55:45.655Z,26.37
2018-07-24T06:58:13.895Z,14.40
2018-07-24T07:00:42.970Z,14.50
2018-07-24T07:03:11.712Z,34.20
2018-07-24T07:05:39.872Z,16.55
2018-07-24T07:08:08.189Z,14.68
2018-07-24T07:10:36.452Z,14.58
2018-07-24T07:13:04.508Z,21.68
2018-07-24T07:15:32.559Z,17.40
2018-07-24T07:18:02.564Z,20.43
2018-07-24T07:20:30.522Z,14.15
2018-07-24T07:22:59.185Z,13.80
2018-07-24T07:25:27.333Z,17.50
2018-07-24T07:27:55.272Z,16.10
2018-07-24T07:30:23.293Z,15.98
2018-07-24T07:32:51.523Z,15.90
2018-07-24T07:35:19.626Z,15.45
2018-07-24T07:37:47.655Z,16.15
2018-07-24T07:40:17.070Z,16.20
2018-07-24T07:42:45.795Z,15.05
2018-07-24T08:04:48.996Z,20.37
2018-07-24T08:07:16.888Z,20.30
2018-07-24T08:09:44.801Z,15.50
2018-07-24T08:12:13.182Z,18.57
2018-07-24T08:14:41.132Z,16.20
2018-07-24T08:17:09.196Z,13.65
2018-07-24T08:19:37.021Z,11.88
2018-07-24T08:22:05.119Z,13.62
2018-07-24T08:24:32.990Z,13.70
2018-07-24T08:27:00.917Z,12.40
2018-07-24T08:29:30.417Z,18.42
2018-07-24T08:31:58.307Z,12.78
2018-07-24T08:34:26.633Z,12.20
2018-07-24T08:36:54.667Z,11.45
2018-07-24T08:39:23.109Z,13.93
2018-07-24T08:41:51.243Z,11.38
2018-07-24T08:44:19.279Z,11.50
2018-07-24T08:46:47.184Z,12.33
2018-07-24T08:49:15.207Z,12.13
2018-07-24T08:51:43.121Z,15.83
2018-07-24T08:54:11.281Z,13.13
2018-07-24T08:56:39.236Z,12.28
2018-07-24T08:59:07.236Z,9.58
2018-07-24T09:01:35.133Z,12.43
2018-07-24T09:04:03.189Z,10.08
2018-07-24T09:06:30.952Z,8.88
2018-07-24T09:08:58.936Z,10.05
2018-07-24T09:11:26.923Z,10.25
2018-07-24T09:13:55.090Z,8.83
2018-07-24T09:16:22.928Z,8.38
2018-07-24T09:18:50.700Z,8.65
2018-07-24T09:21:18.551Z,7.87
2018-07-24T09:23:46.420Z,10.13
2018-07-24T09:26:14.393Z,8.55
2018-07-24T09:28:42.171Z,7.83
2018-07-24T09:31:09.934Z,11.18
2018-07-24T09:33:37.783Z,8.68
2018-07-24T09:36:05.660Z,8.13
2018-07-24T09:38:33.553Z,14.03
2018-07-24T09:41:01.433Z,9.38
2018-07-24T09:43:29.287Z,7.50
2018-07-24T09:45:57.309Z,8.33
2018-07-24T09:48:25.143Z,9.75
2018-07-24T09:50:52.999Z,7.40
2018-07-24T09:53:20.934Z,11.68
2018-07-24T09:55:48.788Z,8.63
2018-07-24T09:58:16.603Z,7.83
2018-07-24T10:00:49.659Z,7.47
2018-07-24T10:03:17.645Z,7.75
2018-07-24T10:05:45.932Z,7.33
2018-07-24T10:08:13.927Z,6.53
2018-07-24T10:10:41.819Z,11.60
2018-07-24T10:13:10.043Z,6.87
2018-07-24T10:15:38.999Z,7.17
2018-07-24T10:18:07.723Z,10.35
2018-07-24T10:20:35.837Z,10.35
2018-07-24T10:23:03.757Z,7.08
2018-07-24T10:25:31.743Z,12.37
2018-07-24T10:27:59.568Z,7.17
2018-07-24T10:30:28.218Z,7.25
2018-07-24T10:32:56.188Z,11.83
2018-07-24T10:35:24.059Z,14.65
2018-07-24T10:37:52.640Z,6.60
2018-07-24T10:40:20.507Z,10.53
2018-07-24T10:42:48.452Z,7.25
2018-07-24T10:45:16.401Z,9.10
2018-07-24T10:47:47.497Z,9.90
2018-07-24T10:50:16.559Z,6.15
2018-07-24T10:52:44.391Z,9.08
2018-07-24T10:55:12.324Z,6.53
2018-07-24T10:57:40.191Z,13.18
2018-07-24T11:00:08.142Z,7.65
2018-07-24T11:02:36.035Z,6.03
2018-07-24T11:05:04.051Z,7.15
2018-07-24T11:07:31.904Z,5.50
2018-07-24T11:09:59.685Z,6.05
2018-07-24T11:12:27.520Z,5.67
2018-07-24T11:14:55.366Z,5.30
2018-07-24T11:17:23.223Z,5.42
2018-07-24T11:19:51.107Z,4.83
2018-07-24T11:22:19.082Z,6.70
2018-07-24T11:24:46.875Z,7.25
2018-07-24T11:27:14.805Z,4.40
2018-07-24T11:29:42.606Z,4.83
2018-07-24T11:32:10.452Z,4.90
2018-07-24T11:34:38.261Z,4.22
2018-07-24T11:37:06.992Z,4.87
2018-07-24T11:39:34.903Z,4.17
2018-07-24T11:42:02.720Z,4.97
2018-07-24T11:44:30.608Z,4.25
2018-07-24T11:46:58.455Z,4.67
2018-07-24T11:49:26.343Z,4.37
2018-07-24T11:51:54.430Z,4.22
2018-07-24T11:54:22.249Z,6.60
2018-07-24T11:56:50.043Z,3.75
2018-07-24T11:59:17.891Z,4.87
2018-07-24T12:01:46.438Z,3.52
2018-07-24T12:04:14.310Z,3.35
2018-07-24T12:06:42.216Z,2.72
2018-07-24T12:12:16.885Z,4.97
2018-07-24T12:14:44.766Z,3.45
2018-07-24T12:17:12.666Z,3.33
2018-07-24T12:19:40.548Z,4.37
2018-07-24T12:22:08.731Z,4.78
2018-07-24T12:24:36.525Z,4.37
2018-07-24T12:27:04.461Z,6.97
2018-07-24T12:29:32.354Z,5.22
2018-07-24T12:32:00.134Z,6.47
2018-07-24T12:34:28.094Z,3.90
2018-07-24T12:36:55.800Z,4.08
2018-07-24T12:39:23.639Z,4.20
2018-07-24T12:41:51.491Z,3.58
2018-07-24T12:44:19.263Z,3.75
2018-07-24T12:46:47.167Z,3.95
2018-07-24T12:49:15.008Z,7.85
2018-07-24T12:51:42.837Z,4.00
2018-07-24T12:54:10.608Z,4.12
2018-07-24T12:56:38.539Z,4.05
2018-07-24T12:59:06.355Z,9.03
2018-07-24T13:01:34.293Z,3.30
2018-07-24T13:04:02.201Z,3.62
2018-07-24T13:06:30.033Z,3.72
2018-07-24T13:08:57.863Z,5.03
2018-07-24T13:11:25.690Z,3.33
2018-07-24T13:13:53.559Z,5.03
2018-07-24T13:16:21.363Z,2.90
2018-07-24T13:18:49.160Z,3.92
2018-07-24T13:21:16.928Z,3.30
2018-07-24T13:23:44.867Z,3.00
2018-07-24T13:26:12.707Z,4.50
2018-07-24T13:28:40.932Z,4.92
2018-07-24T13:31:08.937Z,3.22
2018-07-24T13:33:36.730Z,3.37
2018-07-24T13:36:04.640Z,3.62
2018-07-24T13:38:32.453Z,5.30
2018-07-24T13:41:00.185Z,4.12
2018-07-24T13:43:28.079Z,3.80
2018-07-24T13:45:55.835Z,5.20
2018-07-24T13:48:23.768Z,3.70
2018-07-24T13:50:51.612Z,4.55
2018-07-24T13:53:19.556Z,6.12
2018-07-24T13:55:47.425Z,3.22
2018-07-24T13:58:30.936Z,5.87
2018-07-24T14:00:59.078Z,3.85
2018-07-24T14:03:27.315Z,3.70
2018-07-24T14:05:55.076Z,6.12
2018-07-24T14:08:22.963Z,2.80
2018-07-24T14:10:50.734Z,5.58
2018-07-24T14:13:18.629Z,6.47
2018-07-24T14:15:46.440Z,5.85
2018-07-24T14:18:14.763Z,3.27
2018-07-24T14:20:42.564Z,3.00
2018-07-24T14:23:10.312Z,4.17
2018-07-24T14:25:38.172Z,4.75
2018-07-24T14:28:05.961Z,4.30
2018-07-24T14:30:34.067Z,3.40
2018-07-24T14:33:01.963Z,3.58
2018-07-24T14:35:30.184Z,5.45
2018-07-24T14:37:57.936Z,3.40
2018-07-24T14:40:25.893Z,8.93
2018-07-24T14:42:54.265Z,7.00
2018-07-24T14:45:22.392Z,9.93
2018-07-24T14:47:50.343Z,5.28
2018-07-24T14:50:18.470Z,4.33
2018-07-24T14:52:47.028Z,4.12
2018-07-24T14:55:15.107Z,3.58
2018-07-24T14:57:43.227Z,8.53
2018-07-24T15:00:11.448Z,6.37
2018-07-24T15:02:39.639Z,8.38
2018-07-24T15:05:07.868Z,6.53
2018-07-24T15:07:35.951Z,3.50
2018-07-24T15:10:07.650Z,3.98
2018-07-24T15:12:35.995Z,8.80
2018-07-24T15:15:04.027Z,5.00
2018-07-24T15:17:32.120Z,4.58
2018-07-24T15:20:00.320Z,5.10
2018-07-24T15:22:28.212Z,3.58
2018-07-24T15:24:56.251Z,4.80
2018-07-24T15:27:24.603Z,4.83
2018-07-24T15:29:52.485Z,4.12
2018-07-24T15:32:20.456Z,4.58
2018-07-24T15:34:49.829Z,4.83
2018-07-24T15:37:18.283Z,3.92
2018-07-24T15:39:46.195Z,3.50
2018-07-24T15:42:14.105Z,7.22
2018-07-24T15:44:42.263Z,6.78
2018-07-24T15:47:10.789Z,5.10
2018-07-24T15:49:39.017Z,4.33
2018-07-24T15:52:07.080Z,5.58
2018-07-24T15:54:35.091Z,6.45
2018-07-24T15:57:03.047Z,4.20
2018-07-24T15:59:31.108Z,3.92
2018-07-24T16:01:59.083Z,5.60
2018-07-24T16:04:27.367Z,3.98
2018-07-24T16:06:55.423Z,3.58
2018-07-24T16:09:24.372Z,5.70
2018-07-24T16:11:54.963Z,6.17
2018-07-24T16:14:22.979Z,4.85
2018-07-24T16:16:50.984Z,4.72
2018-07-24T16:19:18.830Z,3.20
2018-07-24T16:21:48.113Z,6.20
2018-07-24T16:24:19.458Z,3.75
2018-07-24T16:26:48.239Z,3.52
2018-07-24T16:29:16.752Z,5.12
2018-07-24T16:31:46.130Z,4.28
2018-07-24T16:34:14.139Z,3.30
2018-07-24T16:36:42.127Z,5.28
2018-07-24T16:39:11.242Z,5.87
2018-07-24T16:41:39.263Z,4.45
2018-07-24T16:44:07.129Z,3.30
2018-07-24T16:46:35.099Z,3.67
2018-07-24T16:49:03.097Z,3.70
2018-07-24T16:51:31.066Z,4.25
2018-07-24T16:53:59.933Z,3.87
2018-07-24T16:56:28.431Z,6.42
2018-07-24T16:58:56.283Z,5.17
2018-07-24T17:01:24.370Z,4.20
2018-07-24T17:03:52.170Z,6.28
2018-07-24T17:06:20.112Z,3.50
2018-07-24T17:08:48.175Z,4.85
2018-07-24T17:11:16.103Z,5.85
2018-07-24T17:13:44.000Z,5.28
2018-07-24T17:16:11.864Z,3.40
2018-07-24T17:18:39.839Z,9.15
2018-07-24T17:21:07.811Z,8.70
2018-07-24T17:23:35.738Z,5.72
2018-07-24T17:26:03.802Z,5.37
2018-07-24T17:28:31.678Z,3.80
2018-07-24T17:31:00.027Z,4.03
2018-07-24T17:33:27.855Z,8.93
2018-07-24T17:35:55.803Z,9.15
2018-07-24T17:38:23.595Z,4.05
2018-07-24T17:40:51.480Z,5.30
2018-07-24T17:43:19.335Z,4.85
2018-07-24T17:45:47.210Z,5.37
2018-07-24T17:48:15.113Z,7.05
2018-07-24T17:50:43.092Z,3.77
2018-07-24T17:53:11.026Z,3.92
2018-07-24T17:55:38.898Z,7.62
2018-07-24T17:58:06.779Z,4.40
2018-07-24T18:00:34.621Z,4.25
2018-07-24T18:03:02.592Z,5.75
2018-07-24T18:05:30.690Z,8.40
2018-07-24T18:07:58.534Z,7.03
2018-07-24T18:10:26.403Z,6.83
2018-07-24T18:12:54.531Z,6.25
2018-07-24T18:15:22.638Z,6.28
2018-07-24T18:17:50.833Z,8.10
2018-07-24T18:20:18.814Z,3.67
2018-07-24T18:22:46.795Z,9.65
2018-07-24T18:25:14.507Z,12.55
2018-07-24T18:27:42.566Z,7.55
2018-07-24T18:30:12.664Z,4.12
2018-07-24T18:32:40.589Z,9.28
2018-07-24T18:35:08.907Z,6.60
2018-07-24T18:37:37.056Z,8.80
2018-07-24T18:40:05.426Z,7.72
2018-07-24T18:42:33.528Z,9.65
2018-07-24T18:45:04.874Z,10.72
2018-07-24T18:47:32.819Z,7.62
2018-07-24T18:50:01.275Z,4.72
2018-07-24T19:08:44.419Z,5.12
2018-07-24T19:11:12.515Z,9.33
2018-07-24T19:13:40.475Z,6.50
2018-07-24T19:16:08.475Z,6.97
2018-07-24T19:18:36.272Z,10.35
2018-07-24T19:21:04.361Z,6.35
2018-07-24T19:23:36.718Z,14.15
2018-07-24T19:26:04.637Z,8.53
2018-07-24T19:28:32.690Z,8.60
2018-07-24T19:31:05.415Z,7.80
2018-07-24T19:33:33.166Z,6.45
2018-07-24T19:36:01.086Z,20.08
2018-07-24T19:38:29.171Z,6.45
2018-07-24T19:40:57.144Z,5.12
2018-07-24T19:43:25.046Z,4.47
2018-07-24T19:45:53.116Z,6.78
2018-07-24T19:48:21.117Z,9.70
2018-07-24T19:50:49.044Z,5.70
2018-07-24T19:53:17.026Z,14.80
2018-07-24T19:55:45.869Z,9.00
2018-07-24T19:58:14.786Z,13.40
2018-07-24T20:00:44.432Z,8.23
2018-07-24T20:03:12.621Z,10.60
2018-07-24T20:05:40.577Z,5.87
2018-07-24T20:08:08.531Z,8.63
2018-07-24T20:10:36.686Z,16.80
2018-07-24T20:13:04.781Z,6.93
2018-07-24T20:15:40.399Z,8.87
2018-07-24T20:18:09.365Z,6.87
2018-07-24T20:20:42.523Z,22.47
2018-07-24T20:23:10.924Z,7.93
2018-07-24T20:25:38.793Z,7.23
2018-07-24T20:28:06.891Z,7.83
2018-07-24T20:30:34.861Z,11.57
2018-07-24T20:33:03.926Z,10.40
2018-07-24T20:35:32.080Z,23.97
2018-07-24T20:38:00.726Z,47.67
2018-07-24T20:40:28.806Z,29.40
2018-07-24T20:42:57.173Z,18.57
2018-07-24T20:45:25.536Z,23.93
2018-07-24T20:47:54.660Z,14.37
2018-07-24T20:50:22.713Z,10.63
2018-07-24T20:52:51.441Z,13.97
2018-07-24T20:55:19.554Z,19.20
2018-07-24T20:57:56.253Z,12.00
2018-07-24T21:00:24.521Z,14.50
2018-07-24T21:02:54.782Z,13.67
2018-07-24T21:05:23.933Z,12.77
2018-07-24T21:07:52.014Z,19.83
2018-07-24T21:10:20.258Z,36.37
2018-07-24T21:12:49.790Z,31.53
2018-07-24T21:15:18.588Z,17.53
2018-07-24T21:17:47.083Z,17.67
2018-07-24T21:20:14.977Z,12.33
2018-07-24T21:22:44.639Z,14.20
2018-07-24T21:25:12.719Z,11.80
2018-07-24T21:27:40.683Z,10.67
2018-07-24T21:30:10.237Z,13.27
2018-07-24T21:32:38.411Z,14.07
2018-07-24T21:35:06.231Z,10.00
2018-07-24T21:37:36.703Z,9.27
2018-07-24T21:40:05.114Z,7.40
2018-07-24T21:42:36.764Z,6.47
2018-07-24T21:45:05.739Z,10.40
2018-07-24T21:47:33.657Z,8.67
2018-07-24T21:50:02.015Z,7.63
2018-07-24T21:52:30.366Z,8.57
2018-07-24T21:54:58.291Z,9.30
2018-07-24T21:57:26.261Z,8.17
2018-07-24T21:59:54.263Z,5.73
2018-07-24T22:02:22.863Z,7.27
2018-07-24T22:04:50.704Z,5.80
2018-07-24T22:07:18.579Z,7.40
2018-07-24T22:09:46.567Z,6.90
2018-07-24T22:12:15.664Z,10.00
2018-07-24T22:14:44.266Z,6.13
2018-07-24T22:17:12.500Z,10.80
2018-07-24T22:19:41.508Z,7.53
2018-07-24T22:22:09.361Z,7.47
2018-07-24T22:24:37.349Z,5.47
2018-07-24T22:27:05.189Z,7.87
2018-07-24T22:29:33.243Z,16.03
2018-07-24T22:32:01.035Z,17.63
2018-07-24T22:34:28.907Z,10.50
2018-07-24T22:36:59.866Z,11.27
2018-07-24T22:39:29.950Z,7.53
2018-07-24T22:41:58.520Z,12.73
2018-07-24T22:44:26.399Z,7.90
2018-07-24T22:46:58.190Z,9.77
2018-07-24T22:49:28.778Z,12.87
2018-07-24T22:51:59.521Z,7.50
2018-07-24T22:54:32.284Z,6.77
2018-07-24T22:57:00.208Z,5.90
2018-07-24T22:59:27.990Z,7.33
2018-07-24T23:01:55.848Z,6.20
2018-07-24T23:04:23.696Z,6.80
2018-07-24T23:06:51.559Z,10.60
2018-07-24T23:09:19.454Z,7.50
2018-07-24T23:11:47.490Z,10.27
2018-07-24T23:14:15.519Z,10.53
2018-07-24T23:16:43.262Z,11.50
2018-07-24T23:19:11.091Z,8.97
2018-07-24T23:21:39.147Z,12.23
2018-07-24T23:24:07.031Z,8.53
2018-07-24T23:26:34.908Z,9.57
2018-07-24T23:29:02.744Z,13.27
2018-07-24T23:31:31.192Z,6.87
2018-07-24T23:33:59.084Z,13.20
2018-07-24T23:36:27.052Z,13.20
2018-07-24T23:38:54.983Z,10.43
2018-07-24T23:41:22.834Z,13.33
2018-07-24T23:43:51.544Z,10.07
2018-07-24T23:46:19.377Z,13.17
2018-07-24T23:48:47.275Z,7.67
2018-07-24T23:51:15.115Z,7.70
2018-07-24T23:53:42.995Z,20.63
2018-07-24T23:56:10.874Z,25.90
2018-07-24T23:58:38.648Z,18.50
